Terminal Aerodrome Forecast
Issued by NWS

Current Version | Previous Version | Graphics & Text | Print | Product List | Glossary On
Versions: 1 2 3 4 5 6 7 8 9 10 11 12 13 14 15 16 17 18 19 20 21 22 23 24
000
FTUS41 KRLX 252300
TAFCKB
TAF
KCKB 252335Z 2600/2624 19004KT P6SM SKC
     FM261200 VRB03KT 5SM -SN BR OVC035
     FM261400 00000KT P6SM OVC020
     FM261900 34004KT 6SM -SN BR OVC010
     FM262300 33004KT 3SM -SN BR OVC008=

USA.gov is the U.S. government's official web portal to all federal, state and local government web resources and services.